Tropical Cyclones
[Index]
Main Index Home Page Stock Weather Photos Extreme Storms Discussion Storm News and Storm Chasing Reports Tropical Cyclones / Hurricanes / Typhoons Weather Data and Links Wild Fires / Bushfires Weather Observation Techniques Weather Picture Catalogue Tornado Pictures and Reports Stock Video Footage and DVDs for sale
Season 2010-2011 Tropical Cyclone YAKA Track Map
Season 2010-2011 Summaries: [BoM-AU] [JTWC-AU] [JTWC-SIO] [JTWC-SPAC] [JTWC-SH]
<<- Previous TC | JTWC 2010-2011 Season | Next TC ->>

click for intensity scale information  Lat/long Grid: Show Hide

 Date Labels: Show Hide

Joint Typhoon Warning Centre Cyclone Data

Name: YAKA

03 Feb 2011 06:00 UTC to 08 Feb 2011 06:00 UTC

    date/time    lat    long     hPa   cat  kts
2011-02-03 06   19.3   160.7W   1000         30          
2011-02-03 12   19.8   162.1W   1000         30          
2011-02-03 18   20.2   163.4W   1000         30          
2011-02-04 00   20.6   164.6W   1000         30          
2011-02-04 06   20.9   165.8W   1000         30          
2011-02-04 12   21.2   167.0W   1000         30          
2011-02-04 18   21.6   168.2W   1000         30          
2011-02-05 00   22.0   169.4W   1000         30          
2011-02-05 06   22.3   170.6W   1000         30          
2011-02-05 12   22.3   172.1W   1000         30          
2011-02-05 18   22.5   173.5W   1000         30          
2011-02-06 00   22.8   174.4W    996         35          
2011-02-06 06   23.2   175.3W    996         35          
2011-02-06 12   24.3   176.2W    989    1    45          
2011-02-06 18   25.5   177.5W    989    1    45          
2011-02-07 00   27.5   178.5W    989    1    45          
2011-02-07 06   29.0   179.3W    993    1    40          
2011-02-07 12   30.6   179.9     996         35          
2011-02-07 18   32.6   179.6     996         35          
2011-02-08 00   34.7   180.0     999         30          
2011-02-08 06   36.9   178.7W   1000         30          
Winds are 1-min average.

Tropical cyclone tracks developed by Michael Bath using data from the Joint Typhoon Warning Centre Best Tracks and Google Maps.


[Australian Severe Weather index] [Copyright Notice] [Email Contacts] [Search This Site] [Privacy Policy]
Document: tropical_cyclone_yaka.htm Updated: 28 June 2017